createdAt,value
2022-08-11T00:00:22.034Z,99.90
2022-08-11T00:02:50.745Z,99.90
2022-08-11T00:05:19.539Z,99.90
2022-08-11T00:07:46.355Z,99.90
2022-08-11T00:10:14.987Z,99.90
2022-08-11T00:12:42.773Z,99.90
2022-08-11T00:15:10.571Z,99.90
2022-08-11T00:17:37.797Z,99.90
2022-08-11T00:20:12.583Z,99.90
2022-08-11T00:22:43.671Z,99.90
2022-08-11T00:25:11.837Z,99.90
2022-08-11T00:27:39.802Z,99.90
2022-08-11T00:30:07.686Z,99.90
2022-08-11T00:32:35.392Z,99.90
2022-08-11T00:35:51.228Z,99.90
2022-08-11T00:37:50.786Z,99.90
2022-08-11T00:40:20.146Z,99.90
2022-08-11T00:43:19.988Z,99.90
2022-08-11T00:46:10.194Z,99.90
2022-08-11T00:48:41.293Z,99.90
2022-08-11T00:51:21.081Z,99.90
2022-08-11T00:54:08.760Z,99.90
2022-08-11T00:56:38.744Z,99.90
2022-08-11T00:59:35.318Z,99.90
2022-08-11T01:02:05.958Z,99.90
2022-08-11T01:04:46.206Z,99.90
2022-08-11T01:08:01.288Z,99.90
2022-08-11T01:10:27.316Z,99.90
2022-08-11T01:13:03.442Z,99.90
2022-08-11T01:15:38.123Z,99.90
2022-08-11T01:18:17.379Z,99.90
2022-08-11T01:21:02.990Z,99.90
2022-08-11T01:23:32.581Z,99.90
2022-08-11T01:26:17.945Z,99.90
2022-08-11T01:28:57.043Z,99.90
2022-08-11T01:31:23.948Z,99.90
2022-08-11T01:34:11.688Z,99.90
2022-08-11T01:36:42.219Z,99.90
2022-08-11T01:39:12.165Z,99.90
2022-08-11T01:42:22.561Z,99.90
2022-08-11T01:44:52.553Z,99.90
2022-08-11T01:47:53.067Z,99.90
2022-08-11T01:50:28.019Z,99.90
2022-08-11T01:53:15.070Z,99.90
2022-08-11T01:55:44.940Z,99.90
2022-08-11T01:58:29.361Z,99.90
2022-08-11T02:01:28.042Z,99.90
2022-08-11T02:04:00.923Z,99.90
2022-08-11T02:06:55.467Z,99.90
2022-08-11T02:09:49.221Z,99.90
2022-08-11T02:12:16.921Z,99.90
2022-08-11T02:14:53.573Z,99.90
2022-08-11T02:18:01.330Z,99.90
2022-08-11T02:20:53.129Z,99.90
2022-08-11T02:24:04.191Z,99.90
2022-08-11T02:26:40.355Z,99.90
2022-08-11T02:29:13.973Z,99.90
2022-08-11T02:32:23.943Z,99.90
2022-08-11T02:35:00.190Z,99.90
2022-08-11T02:37:33.142Z,99.90
2022-08-11T02:40:00.689Z,99.90
2022-08-11T02:42:42.314Z,99.90
2022-08-11T02:45:12.185Z,99.90
2022-08-11T02:48:04.783Z,99.90
2022-08-11T02:50:35.703Z,99.90
2022-08-11T02:53:08.755Z,99.90
2022-08-11T02:55:57.001Z,99.90
2022-08-11T02:58:43.841Z,99.90
2022-08-11T03:01:32.438Z,99.90
2022-08-11T03:04:21.433Z,99.90
2022-08-11T03:07:04.837Z,99.90
2022-08-11T03:09:55.515Z,99.90
2022-08-11T03:12:47.194Z,99.90
2022-08-11T03:15:39.221Z,99.90
2022-08-11T03:18:19.664Z,99.90
2022-08-11T03:20:51.736Z,99.90
2022-08-11T03:23:24.606Z,99.90
2022-08-11T03:25:55.698Z,99.90
2022-08-11T03:28:26.153Z,99.90
2022-08-11T03:30:56.567Z,99.90
2022-08-11T03:33:42.127Z,99.90
2022-08-11T03:36:27.399Z,99.90
2022-08-11T03:39:03.322Z,99.90
2022-08-11T03:42:01.787Z,99.90
2022-08-11T03:44:48.958Z,99.90
2022-08-11T03:47:32.132Z,99.90
2022-08-11T03:50:17.299Z,99.90
2022-08-11T03:52:50.203Z,99.90
2022-08-11T03:55:17.033Z,99.90
2022-08-11T03:57:49.988Z,99.90
2022-08-11T04:00:22.689Z,99.90
2022-08-11T04:03:12.566Z,99.90
2022-08-11T04:05:58.231Z,99.90
2022-08-11T04:08:43.574Z,99.90
2022-08-11T04:11:16.262Z,99.90
2022-08-11T04:14:21.848Z,99.90
2022-08-11T04:17:07.492Z,99.90
2022-08-11T04:19:51.641Z,99.90
2022-08-11T04:22:21.633Z,99.90
2022-08-11T04:25:07.231Z,99.90
2022-08-11T04:27:43.211Z,99.90
2022-08-11T04:30:38.257Z,99.90
2022-08-11T04:33:07.525Z,99.90
2022-08-11T04:35:52.986Z,99.90
2022-08-11T04:38:25.721Z,99.90
2022-08-11T04:41:15.247Z,99.90
2022-08-11T04:44:07.672Z,99.90
2022-08-11T04:46:43.691Z,99.90
2022-08-11T04:49:47.439Z,99.90
2022-08-11T04:52:42.158Z,99.90
2022-08-11T04:55:46.642Z,99.90
2022-08-11T04:58:55.025Z,99.90
2022-08-11T05:01:41.487Z,99.90
2022-08-11T05:04:42.102Z,99.90
2022-08-11T05:07:11.807Z,99.90
2022-08-11T05:10:03.515Z,99.90
2022-08-11T05:12:36.688Z,99.70
2022-08-11T05:15:23.046Z,99.90
2022-08-11T05:18:17.466Z,99.90
2022-08-11T05:21:06.214Z,99.10
2022-08-11T05:23:52.952Z,99.20
2022-08-11T05:26:46.486Z,98.60
2022-08-11T05:29:45.298Z,97.10
2022-08-11T05:32:32.006Z,96.70
2022-08-11T05:35:02.333Z,95.90
2022-08-11T05:37:29.158Z,95.50
2022-08-11T05:40:18.867Z,95.80
2022-08-11T07:42:59.296Z,80.10
2022-08-11T07:45:45.266Z,79.60
2022-08-11T07:48:30.975Z,81.90
2022-08-11T07:51:16.782Z,82.10
2022-08-11T07:53:58.748Z,82.20
2022-08-11T07:56:48.735Z,83.40
2022-08-11T08:00:03.316Z,84.20
2022-08-11T08:02:44.886Z,81.70
2022-08-11T08:05:30.147Z,79.80
2022-08-11T08:08:15.380Z,76.60
2022-08-11T08:11:02.956Z,80.30
2022-08-11T08:13:50.801Z,85.20
2022-08-11T08:16:35.981Z,85.90
2022-08-11T08:19:02.958Z,83.90
2022-08-11T08:21:32.350Z,83.80
2022-08-11T08:23:59.488Z,85.80
2022-08-11T08:26:51.543Z,87.80
2022-08-11T08:29:39.016Z,86.20
2022-08-11T08:32:07.058Z,85.80
2022-08-11T08:34:35.625Z,88.40
2022-08-11T08:37:02.851Z,92.20
2022-08-11T08:39:45.271Z,87.60
2022-08-11T08:42:13.529Z,88.60
2022-08-11T08:44:45.989Z,89.10
2022-08-11T08:47:14.275Z,88.30
2022-08-11T08:49:46.653Z,85.60
2022-08-11T08:52:25.350Z,88.80
2022-08-11T08:55:01.819Z,89.40
2022-08-11T08:57:29.620Z,88.00
2022-08-11T08:59:57.100Z,86.50
2022-08-11T09:02:34.647Z,90.10
2022-08-11T09:05:04.233Z,89.70
2022-08-11T09:07:39.446Z,87.80
2022-08-11T09:10:11.516Z,88.50
2022-08-11T09:12:39.677Z,89.20
2022-08-11T09:15:09.378Z,90.80
2022-08-11T09:17:43.193Z,92.50
2022-08-11T09:20:13.107Z,90.30
2022-08-11T09:23:54.613Z,90.10
2022-08-11T09:26:07.017Z,90.10
2022-08-11T09:28:34.630Z,87.80
2022-08-11T09:31:02.068Z,90.70
2022-08-11T09:33:30.260Z,90.00
2022-08-11T09:35:57.540Z,90.10
2022-08-11T09:38:49.271Z,90.50
2022-08-11T09:41:17.034Z,89.70
2022-08-11T09:44:04.360Z,91.40
2022-08-11T09:46:32.921Z,90.30
2022-08-11T09:49:00.953Z,89.90
2022-08-11T09:51:30.765Z,91.50
2022-08-11T09:54:03.567Z,90.50
2022-08-11T09:56:50.480Z,90.00
2022-08-11T09:59:18.895Z,90.30
2022-08-11T10:01:47.550Z,90.10
2022-08-11T10:04:16.202Z,90.10
2022-08-11T10:07:05.528Z,90.10
2022-08-11T10:09:41.696Z,89.30
2022-08-11T10:12:10.487Z,85.90
2022-08-11T10:14:59.006Z,85.00
2022-08-11T10:17:26.001Z,84.10
2022-08-11T10:20:05.132Z,82.20
2022-08-11T10:22:51.367Z,83.90
2022-08-11T10:25:36.887Z,84.40
2022-08-11T10:28:32.744Z,85.80
2022-08-11T10:31:12.654Z,81.80
2022-08-11T10:34:00.253Z,84.70
2022-08-11T10:36:31.888Z,82.70
2022-08-11T10:38:59.948Z,84.50
2022-08-11T10:42:08.719Z,87.20
2022-08-11T10:44:45.131Z,86.60
2022-08-11T10:47:32.053Z,83.40
2022-08-11T10:50:18.216Z,81.30
2022-08-11T10:53:05.782Z,80.70
2022-08-11T10:55:51.520Z,85.20
2022-08-11T10:58:37.615Z,82.40
2022-08-11T11:01:05.958Z,82.90
2022-08-11T11:03:36.520Z,84.90
2022-08-11T11:06:28.938Z,83.30
2022-08-11T11:09:03.756Z,85.00
2022-08-11T11:11:52.793Z,81.30
2022-08-11T11:14:46.368Z,81.80
2022-08-11T11:17:26.457Z,79.60
2022-08-11T11:20:00.748Z,81.40
2022-08-11T11:22:40.958Z,83.70
2022-08-11T11:25:21.020Z,80.20
2022-08-11T11:27:51.165Z,82.20
2022-08-11T11:30:18.800Z,84.00
2022-08-11T11:32:51.795Z,84.30
2022-08-11T11:35:18.745Z,83.00
2022-08-11T11:37:57.130Z,83.80
2022-08-11T11:40:32.188Z,82.60
2022-08-11T11:42:59.810Z,82.90
2022-08-11T11:45:26.881Z,83.80
2022-08-11T11:47:54.823Z,82.80
2022-08-11T11:50:31.827Z,81.50
2022-08-11T11:53:01.624Z,83.00
2022-08-11T11:55:29.649Z,85.20
2022-08-11T11:58:18.806Z,87.00
2022-08-11T12:01:04.847Z,85.80
2022-08-11T12:03:32.467Z,83.50
2022-08-11T12:06:09.538Z,84.60
2022-08-11T12:08:37.649Z,84.10
2022-08-11T12:11:25.249Z,83.40
2022-08-11T12:13:53.071Z,82.40
2022-08-11T12:16:33.268Z,83.40
2022-08-11T12:19:13.503Z,83.80
2022-08-11T12:22:03.541Z,85.70
2022-08-11T12:24:49.445Z,84.60
2022-08-11T12:27:24.174Z,80.20
2022-08-11T12:30:06.041Z,80.80
2022-08-11T12:32:34.885Z,80.00
2022-08-11T12:35:02.384Z,81.30
2022-08-11T12:37:31.445Z,84.50
2022-08-11T12:41:11.601Z,84.80
2022-08-11T12:43:46.448Z,82.10
2022-08-11T12:46:25.524Z,88.60
2022-08-11T12:49:14.749Z,88.10
2022-08-11T12:52:13.540Z,82.00
2022-08-11T12:54:47.098Z,84.20
2022-08-11T12:57:52.809Z,82.60
2022-08-11T13:00:39.093Z,82.20
2022-08-11T13:03:26.082Z,84.60
2022-08-11T13:05:55.254Z,82.70
2022-08-11T13:08:25.607Z,81.70
2022-08-11T13:11:12.400Z,81.60
2022-08-11T13:13:52.515Z,81.10
2022-08-11T13:16:24.249Z,79.50
2022-08-11T13:18:53.407Z,78.90
2022-08-11T13:21:21.577Z,80.90
2022-08-11T13:24:00.895Z,79.40
2022-08-11T13:26:49.608Z,77.90
2022-08-11T13:29:18.665Z,75.70
2022-08-11T13:31:46.381Z,78.80
2022-08-11T13:34:13.457Z,78.50
2022-08-11T13:36:41.719Z,75.00
2022-08-11T13:39:09.627Z,78.60
2022-08-11T13:41:39.555Z,76.70
2022-08-11T13:44:07.143Z,79.60
2022-08-11T13:46:34.411Z,78.40
2022-08-11T13:49:02.307Z,79.50
2022-08-11T13:51:35.538Z,77.70
2022-08-11T13:54:05.755Z,79.90
2022-08-11T13:56:33.447Z,79.00
2022-08-11T13:59:01.800Z,78.20
2022-08-11T14:02:23.020Z,73.40
2022-08-11T14:04:40.891Z,74.20
2022-08-11T14:07:09.125Z,77.50
2022-08-11T14:09:37.752Z,80.60
2022-08-11T14:12:27.482Z,78.10
2022-08-11T14:15:08.785Z,77.00
2022-08-11T14:17:48.455Z,76.40
2022-08-11T14:20:40.376Z,75.50
2022-08-11T14:23:04.976Z,74.00
2022-08-11T14:26:00.648Z,75.60
2022-08-11T14:28:31.849Z,72.10
2022-08-11T14:31:02.808Z,76.20
2022-08-11T14:34:00.606Z,74.80
2022-08-11T14:36:20.523Z,76.70
2022-08-11T14:38:47.987Z,75.40
2022-08-11T14:41:34.043Z,76.90
2022-08-11T14:44:19.742Z,75.40
2022-08-11T14:47:04.801Z,73.90
2022-08-11T14:50:10.312Z,75.30
2022-08-11T14:52:39.833Z,77.20
2022-08-11T14:55:26.168Z,75.60
2022-08-11T14:57:56.481Z,75.10
2022-08-11T15:00:23.939Z,75.60
2022-08-11T15:03:10.298Z,74.70
2022-08-11T15:05:58.338Z,76.80
2022-08-11T15:08:48.083Z,76.30
2022-08-11T15:11:34.933Z,76.40
2022-08-11T15:14:03.306Z,76.00
2022-08-11T15:16:49.367Z,76.90
2022-08-11T15:19:21.731Z,77.10
2022-08-11T15:22:07.798Z,77.10
2022-08-11T15:24:36.539Z,75.50
2022-08-11T15:27:24.165Z,74.90
2022-08-11T15:30:10.364Z,77.80
2022-08-11T15:33:07.464Z,78.60
2022-08-11T15:35:55.157Z,75.80
2022-08-11T15:38:23.354Z,76.80
2022-08-11T15:41:10.339Z,77.80
2022-08-11T15:44:08.171Z,76.40
2022-08-11T15:46:40.978Z,76.20
2022-08-11T15:49:22.149Z,78.30
2022-08-11T15:52:01.882Z,78.70
2022-08-11T15:54:31.417Z,78.00
2022-08-11T15:56:59.372Z,78.40
2022-08-11T15:59:45.454Z,79.40
2022-08-11T16:02:32.418Z,80.00
2022-08-11T16:05:02.187Z,78.80
2022-08-11T16:07:36.420Z,78.90
2022-08-11T16:10:10.871Z,78.70
2022-08-11T16:13:06.011Z,80.30
2022-08-11T16:15:54.333Z,80.00
2022-08-11T16:18:22.449Z,80.40
2022-08-11T16:20:55.524Z,81.20
2022-08-11T16:23:25.593Z,82.80
2022-08-11T16:27:05.716Z,82.90
2022-08-11T16:28:41.393Z,82.80
2022-08-11T16:31:10.938Z,83.20
2022-08-11T16:33:49.833Z,82.80
2022-08-11T16:36:37.409Z,82.20
2022-08-11T16:39:05.496Z,81.80
2022-08-11T16:41:52.943Z,81.80
2022-08-11T16:44:39.229Z,83.30
2022-08-11T16:47:07.358Z,83.30
2022-08-11T16:49:36.831Z,84.60
2022-08-11T16:52:05.508Z,85.90
2022-08-11T16:54:33.373Z,87.00
2022-08-11T16:57:22.818Z,87.70
2022-08-11T16:59:56.089Z,86.80
2022-08-11T17:02:45.233Z,87.00
2022-08-11T17:05:32.014Z,89.10
2022-08-11T17:08:18.676Z,89.70
2022-08-11T17:11:08.207Z,90.70
2022-08-11T17:13:42.519Z,91.10
2022-08-11T17:16:12.964Z,91.80
2022-08-11T17:18:50.202Z,92.30
2022-08-11T17:21:22.867Z,91.10
2022-08-11T17:23:55.310Z,91.60
2022-08-11T17:26:24.327Z,91.80
2022-08-11T17:28:59.642Z,92.20
2022-08-11T17:31:45.478Z,92.40
2022-08-11T17:34:31.853Z,91.40
2022-08-11T17:37:00.207Z,93.40
2022-08-11T17:39:29.363Z,93.00
2022-08-11T17:42:15.530Z,93.10
2022-08-11T17:45:01.023Z,94.00
2022-08-11T17:47:47.748Z,94.00
2022-08-11T17:50:17.072Z,94.70
2022-08-11T17:53:04.562Z,94.90
2022-08-11T17:55:53.356Z,95.20
2022-08-11T17:58:40.654Z,95.40
2022-08-11T18:01:09.508Z,96.10
2022-08-11T18:03:39.996Z,98.10
2022-08-11T18:06:12.782Z,99.90
2022-08-11T18:09:02.464Z,99.90
2022-08-11T18:12:10.544Z,99.90
2022-08-11T18:14:56.000Z,99.90
2022-08-11T18:17:41.752Z,99.90
2022-08-11T18:20:27.590Z,99.90
2022-08-11T18:23:14.367Z,99.90
2022-08-11T18:26:02.658Z,99.90
2022-08-11T18:28:55.529Z,99.90
2022-08-11T19:30:46.777Z,99.90
2022-08-11T19:33:59.855Z,99.90
2022-08-11T19:36:40.382Z,99.90
2022-08-11T19:39:26.746Z,99.90
2022-08-11T19:42:12.554Z,99.90
2022-08-11T19:44:58.390Z,99.90
2022-08-11T19:47:44.090Z,99.90
2022-08-11T19:50:30.713Z,99.90
2022-08-11T19:53:19.552Z,99.90
2022-08-11T19:56:06.807Z,99.90
2022-08-11T19:58:56.019Z,99.90
2022-08-11T20:02:01.675Z,99.90
2022-08-11T20:04:47.209Z,99.90
2022-08-11T20:07:36.500Z,99.90
2022-08-11T20:10:23.668Z,99.90
2022-08-11T20:13:09.906Z,99.90
2022-08-11T20:15:56.599Z,99.90
2022-08-11T20:18:42.833Z,99.90
2022-08-11T20:21:30.567Z,99.90
2022-08-11T20:24:19.769Z,99.90
2022-08-11T20:27:06.627Z,99.90
2022-08-11T20:30:06.025Z,99.90
2022-08-11T20:32:51.766Z,99.90
2022-08-11T20:35:37.598Z,99.90
2022-08-11T20:38:23.944Z,99.90
2022-08-11T20:41:10.340Z,99.90
2022-08-11T20:44:07.877Z,99.90
2022-08-11T20:46:58.051Z,99.90
2022-08-11T20:49:53.896Z,99.90
2022-08-11T20:52:47.242Z,99.90
2022-08-11T20:55:51.230Z,99.90
2022-08-11T20:59:13.505Z,99.90
2022-08-11T21:01:44.675Z,99.90
2022-08-11T21:04:31.070Z,99.90
2022-08-11T21:07:28.129Z,99.90
2022-08-11T21:10:26.851Z,99.90
2022-08-11T21:13:25.916Z,99.90
2022-08-11T21:16:16.430Z,99.90
2022-08-11T21:19:12.619Z,99.90
2022-08-11T21:21:59.761Z,99.90
2022-08-11T21:24:47.143Z,99.90
2022-08-11T21:27:35.213Z,99.90
2022-08-11T21:30:21.023Z,99.90
2022-08-11T21:33:06.774Z,99.90
2022-08-11T21:35:52.166Z,99.90
2022-08-11T21:38:37.781Z,99.90
2022-08-11T21:41:23.914Z,99.90
2022-08-11T21:44:09.687Z,99.90
2022-08-11T21:46:56.875Z,99.90
2022-08-11T21:49:44.293Z,99.90
2022-08-11T21:52:30.233Z,99.90
2022-08-11T22:56:09.008Z,99.90
2022-08-11T22:58:54.547Z,99.90
2022-08-11T23:01:54.770Z,99.90
2022-08-11T23:04:42.361Z,99.90
2022-08-11T23:07:49.721Z,99.90
2022-08-11T23:10:34.129Z,99.90
2022-08-11T23:13:22.064Z,99.90
2022-08-11T23:16:08.168Z,99.90
2022-08-11T23:18:53.760Z,99.90
2022-08-11T23:21:39.815Z,99.90
2022-08-11T23:24:25.735Z,99.90
2022-08-11T23:27:11.539Z,99.90
2022-08-11T23:29:57.851Z,99.90
2022-08-11T23:32:44.720Z,99.90
2022-08-11T23:35:38.110Z,99.90
2022-08-11T23:38:25.164Z,99.90
2022-08-11T23:41:11.000Z,99.90
2022-08-11T23:43:56.764Z,99.90
2022-08-11T23:46:43.900Z,99.90
2022-08-11T23:49:29.518Z,99.90
2022-08-11T23:52:15.127Z,99.90
